Time;durP1;ratioP1;P1;durP2;ratioP2;P2;SDS_P1;SDS_P2;PMS_P1;PMS_P2;Temp;Humidity;BMP_temperature;BMP_pressure;BME280_temperature;BME280_humidity;BME280_pressure;Samples;Min_cycle;Max_cycle;Signal;HPM_P1;HPM_P2
2022/11/07 00:01:29;;;;;;;;;;;11.30;99.90;;;;;;5095042;28;19930;-66
2022/11/07 00:03:55;;;;;;;;;;;11.30;99.90;;;;;;5095032;28;19994;-67
2022/11/07 00:06:21;;;;;;;;;;;11.30;99.90;;;;;;5094675;28;19945;-66
2022/11/07 00:08:48;;;;;;;;;;;11.30;99.90;;;;;;5094415;28;19974;-66
2022/11/07 00:11:13;;;;;;;;;;;11.40;99.90;;;;;;5094642;28;19977;-66
2022/11/07 00:13:39;;;;;;;;;;;11.40;99.90;;;;;;5094535;28;20365;-66
2022/11/07 00:16:07;;;;;;;;;;;11.40;99.90;;;;;;5094539;28;19908;-66
2022/11/07 00:18:33;;;;;;;;;;;11.40;99.90;;;;;;5093936;28;19947;-66
2022/11/07 00:21:02;;;;;;;;;;;11.40;99.90;;;;;;5094446;28;19908;-66
2022/11/07 00:23:28;;;;;;;;;;;11.50;99.90;;;;;;5094414;28;20432;-66
2022/11/07 00:25:53;;;;;;;;;;;11.50;99.90;;;;;;5076165;28;19943;-66
2022/11/07 00:28:19;;;;;;;;;;;11.50;99.90;;;;;;5094263;28;19977;-66
2022/11/07 00:30:44;;;;;;;;;;;11.50;99.90;;;;;;5094232;28;20010;-66
2022/11/07 00:33:10;;;;;;;;;;;11.50;99.90;;;;;;5076092;28;19917;-66
2022/11/07 00:35:39;;;;;;;;;;;11.40;99.90;;;;;;5094469;28;19912;-66
2022/11/07 00:38:04;;;;;;;;;;;11.50;99.90;;;;;;5094127;28;19914;-66
2022/11/07 00:40:30;;;;;;;;;;;11.50;99.90;;;;;;5075926;28;19912;-67
2022/11/07 00:42:55;;;;;;;;;;;11.40;99.90;;;;;;5094099;28;19958;-66
2022/11/07 00:45:21;;;;;;;;;;;11.40;99.90;;;;;;5094082;28;19908;-66
2022/11/07 00:47:46;;;;;;;;;;;11.50;99.90;;;;;;5094062;28;19908;-66
2022/11/07 00:50:12;;;;;;;;;;;11.50;99.90;;;;;;5093896;28;19919;-66
2022/11/07 00:52:37;;;;;;;;;;;11.50;99.90;;;;;;5093932;28;20358;-66
2022/11/07 00:55:03;;;;;;;;;;;11.50;99.90;;;;;;5093898;28;19954;-66
2022/11/07 00:57:29;;;;;;;;;;;11.40;99.90;;;;;;5075742;28;19916;-69
2022/11/07 00:59:54;;;;;;;;;;;11.50;99.90;;;;;;5093870;28;19958;-66
2022/11/07 01:02:20;;;;;;;;;;;11.40;99.90;;;;;;5075887;28;20374;-66
2022/11/07 01:05:16;;;;;;;;;;;11.40;99.90;;;;;;5093783;28;19934;-66
2022/11/07 01:07:32;;;;;;;;;;;11.50;99.90;;;;;;5093665;28;19955;-67
2022/11/07 01:09:57;;;;;;;;;;;11.50;99.90;;;;;;5093514;28;20446;-66
2022/11/07 01:12:23;;;;;;;;;;;11.50;99.90;;;;;;5094008;28;19912;-66
2022/11/07 01:14:48;;;;;;;;;;;11.50;99.90;;;;;;5093692;28;19908;-66
2022/11/07 01:17:14;;;;;;;;;;;11.50;99.90;;;;;;5093673;28;19923;-66
2022/11/07 01:19:39;;;;;;;;;;;11.50;99.90;;;;;;5093625;28;20390;-67
2022/11/07 01:22:05;;;;;;;;;;;11.50;99.90;;;;;;5093630;28;20378;-67
2022/11/07 01:24:30;;;;;;;;;;;11.50;99.90;;;;;;5075646;28;19915;-66
2022/11/07 01:26:55;;;;;;;;;;;11.50;99.90;;;;;;5093590;28;20012;-66
2022/11/07 01:29:21;;;;;;;;;;;11.50;99.90;;;;;;5093726;28;20015;-66
2022/11/07 01:31:47;;;;;;;;;;;11.50;99.90;;;;;;5096220;28;20376;-66
2022/11/07 01:34:12;;;;;;;;;;;11.50;99.90;;;;;;5079600;28;19912;-66
2022/11/07 01:36:38;;;;;;;;;;;11.50;99.90;;;;;;5079399;28;19912;-66
2022/11/07 01:39:04;;;;;;;;;;;11.50;99.90;;;;;;5097549;28;19962;-66
2022/11/07 01:41:31;;;;;;;;;;;11.50;99.90;;;;;;5097444;28;20373;-66
2022/11/07 01:44:00;;;;;;;;;;;11.50;99.90;;;;;;5097675;28;19908;-66
2022/11/07 01:46:28;;;;;;;;;;;11.50;99.90;;;;;;5097397;28;19912;-67
2022/11/07 01:49:14;;;;;;;;;;;11.50;99.90;;;;;;5097353;28;19962;-66
2022/11/07 01:51:45;;;;;;;;;;;11.50;99.90;;;;;;5097152;28;19908;-66
2022/11/07 01:54:12;;;;;;;;;;;11.60;99.90;;;;;;5097241;28;19947;-66
2022/11/07 01:56:38;;;;;;;;;;;11.50;99.90;;;;;;5097226;28;20421;-66
2022/11/07 01:59:04;;;;;;;;;;;11.60;99.90;;;;;;5078954;28;19915;-66
2022/11/07 02:01:30;;;;;;;;;;;11.60;99.90;;;;;;5097376;28;20281;-67
2022/11/07 02:03:57;;;;;;;;;;;11.50;99.90;;;;;;5097093;28;20046;-66
2022/11/07 02:06:25;;;;;;;;;;;11.50;99.90;;;;;;5097075;28;20037;-66
2022/11/07 02:08:51;;;;;;;;;;;11.50;99.90;;;;;;5096664;28;19924;-66
2022/11/07 02:11:17;;;;;;;;;;;11.40;99.90;;;;;;5096948;28;19943;-66
2022/11/07 02:13:42;;;;;;;;;;;11.30;99.90;;;;;;5096907;28;20332;-66
2022/11/07 02:16:08;;;;;;;;;;;11.20;99.90;;;;;;5097133;28;19959;-66
2022/11/07 02:18:34;;;;;;;;;;;11.10;99.90;;;;;;5096828;28;19950;-66
2022/11/07 02:21:02;;;;;;;;;;;11.00;99.90;;;;;;5097015;28;19914;-66
2022/11/07 02:23:34;;;;;;;;;;;10.90;99.90;;;;;;5096941;28;19908;-66
2022/11/07 02:25:59;;;;;;;;;;;10.90;99.90;;;;;;5096615;28;19908;-66
2022/11/07 02:28:25;;;;;;;;;;;10.90;99.90;;;;;;5096679;28;20439;-66
2022/11/07 02:30:51;;;;;;;;;;;10.80;99.90;;;;;;5078305;28;19912;-67
2022/11/07 02:33:18;;;;;;;;;;;10.80;99.90;;;;;;5096794;28;19994;-66
2022/11/07 02:35:45;;;;;;;;;;;10.70;99.90;;;;;;5078334;28;19909;-66
2022/11/07 02:38:12;;;;;;;;;;;10.70;99.90;;;;;;5096432;28;20277;-66
2022/11/07 02:40:38;;;;;;;;;;;10.80;99.90;;;;;;5096367;28;19908;-66
2022/11/07 02:43:05;;;;;;;;;;;10.70;99.90;;;;;;5095859;28;19908;-66
2022/11/07 02:45:33;;;;;;;;;;;10.60;99.90;;;;;;5096526;28;20034;-66
2022/11/07 02:47:59;;;;;;;;;;;10.70;99.90;;;;;;5096216;28;19912;-66
2022/11/07 02:50:24;;;;;;;;;;;10.70;99.90;;;;;;5096102;28;19921;-66
2022/11/07 02:52:49;;;;;;;;;;;10.70;99.90;;;;;;5096153;28;19908;-67
2022/11/07 02:55:15;;;;;;;;;;;10.70;99.90;;;;;;5096374;28;19913;-66
2022/11/07 02:57:41;;;;;;;;;;;10.70;99.90;;;;;;5096062;28;20366;-66
2022/11/07 03:00:08;;;;;;;;;;;10.70;99.90;;;;;;5095985;28;19912;-66
2022/11/07 03:02:34;;;;;;;;;;;10.80;99.90;;;;;;5077832;28;19914;-66
2022/11/07 03:04:59;;;;;;;;;;;10.70;99.90;;;;;;5095918;28;19995;-66
2022/11/07 03:07:24;;;;;;;;;;;10.70;99.90;;;;;;5095860;28;20281;-66
2022/11/07 03:09:50;;;;;;;;;;;10.70;99.90;;;;;;5095520;28;19920;-67
2022/11/07 03:12:15;;;;;;;;;;;10.70;99.90;;;;;;5095759;28;19912;-66
2022/11/07 03:14:41;;;;;;;;;;;10.80;99.90;;;;;;5095750;28;19933;-66
2022/11/07 03:17:06;;;;;;;;;;;10.70;99.90;;;;;;5095601;28;19923;-66
2022/11/07 03:19:32;;;;;;;;;;;10.70;99.90;;;;;;5095630;28;19909;-66
2022/11/07 03:21:57;;;;;;;;;;;10.60;99.90;;;;;;5095546;28;19908;-66
2022/11/07 03:24:23;;;;;;;;;;;10.60;99.90;;;;;;5095571;28;19908;-66
2022/11/07 03:26:48;;;;;;;;;;;10.60;99.90;;;;;;5095492;28;19909;-66
2022/11/07 03:29:14;;;;;;;;;;;10.60;99.90;;;;;;5095359;28;19912;-66
2022/11/07 03:31:39;;;;;;;;;;;10.50;99.90;;;;;;5095358;28;20358;-66
2022/11/07 03:34:05;;;;;;;;;;;10.60;99.90;;;;;;5095304;28;19912;-66
2022/11/07 03:36:30;;;;;;;;;;;10.60;99.90;;;;;;5095305;28;19908;-66
2022/11/07 03:38:55;;;;;;;;;;;10.60;99.90;;;;;;5077143;28;19912;-66
2022/11/07 03:41:21;;;;;;;;;;;10.70;99.90;;;;;;5095186;28;19908;-67
2022/11/07 03:43:47;;;;;;;;;;;10.70;99.90;;;;;;5095091;28;19908;-67
2022/11/07 03:46:13;;;;;;;;;;;10.70;99.90;;;;;;5095141;28;19916;-66
2022/11/07 03:48:39;;;;;;;;;;;10.70;99.90;;;;;;5095068;28;19916;-66
2022/11/07 03:51:05;;;;;;;;;;;10.70;99.90;;;;;;5094866;28;20361;-66
2022/11/07 03:53:30;;;;;;;;;;;10.80;99.90;;;;;;5094025;28;19908;-66
2022/11/07 03:55:56;;;;;;;;;;;10.90;99.90;;;;;;5076757;28;19918;-66
2022/11/07 03:58:22;;;;;;;;;;;10.90;99.90;;;;;;5076732;28;19973;-66
2022/11/07 04:00:47;;;;;;;;;;;10.90;99.90;;;;;;5094791;28;20365;-66
2022/11/07 04:03:13;;;;;;;;;;;10.80;99.90;;;;;;5094708;28;19951;-66
2022/11/07 04:05:38;;;;;;;;;;;10.80;99.90;;;;;;5094937;28;19908;-66
2022/11/07 04:08:04;;;;;;;;;;;10.80;99.90;;;;;;5094947;28;19987;-66
2022/11/07 04:10:29;;;;;;;;;;;10.80;99.90;;;;;;5094436;28;20362;-67
2022/11/07 04:18:27;;;;;;;;;;;10.80;99.90;;;;;;5094312;28;19934;-67
2022/11/07 04:20:52;;;;;;;;;;;10.90;99.90;;;;;;5094720;28;19951;-66
2022/11/07 04:23:18;;;;;;;;;;;10.90;99.90;;;;;;5094682;28;19908;-66
2022/11/07 04:28:28;;;;;;;;;;;11.00;99.90;;;;;;5094132;28;20373;-66
2022/11/07 04:30:54;;;;;;;;;;;11.10;99.90;;;;;;5094279;28;19926;-66
2022/11/07 04:33:19;;;;;;;;;;;11.20;99.90;;;;;;5076124;28;19908;-66
2022/11/07 04:35:45;;;;;;;;;;;11.20;99.90;;;;;;5094469;28;19930;-66
2022/11/07 04:38:10;;;;;;;;;;;11.20;99.90;;;;;;5094197;28;19973;-66
2022/11/07 04:40:36;;;;;;;;;;;11.10;99.90;;;;;;5094128;28;19912;-66
2022/11/07 04:43:07;;;;;;;;;;;11.10;99.90;;;;;;5094076;28;19961;-66
2022/11/07 04:45:35;;;;;;;;;;;11.10;99.90;;;;;;5076040;28;19915;-66
2022/11/07 04:48:01;;;;;;;;;;;11.10;99.90;;;;;;5094023;28;19908;-67
2022/11/07 04:50:26;;;;;;;;;;;11.10;99.90;;;;;;5093902;28;19912;-66
2022/11/07 04:52:51;;;;;;;;;;;11.00;99.90;;;;;;5093925;28;19915;-66
2022/11/07 04:55:21;;;;;;;;;;;11.00;99.90;;;;;;5093901;28;19908;-66
2022/11/07 04:57:46;;;;;;;;;;;10.90;99.90;;;;;;5093854;28;19998;-66
2022/11/07 05:00:12;;;;;;;;;;;10.90;99.90;;;;;;5093879;28;19951;-66
2022/11/07 05:02:37;;;;;;;;;;;10.90;99.90;;;;;;5093856;28;20029;-66
2022/11/07 05:05:03;;;;;;;;;;;10.90;99.90;;;;;;5093901;28;19908;-67
2022/11/07 05:07:28;;;;;;;;;;;10.90;99.90;;;;;;5093753;28;20353;-66
2022/11/07 05:09:54;;;;;;;;;;;10.90;99.90;;;;;;5093506;28;19969;-66
2022/11/07 05:12:20;;;;;;;;;;;10.80;99.90;;;;;;5093765;28;20362;-66
2022/11/07 05:14:45;;;;;;;;;;;10.80;99.90;;;;;;5093980;28;20074;-66
2022/11/07 05:17:13;;;;;;;;;;;10.80;99.90;;;;;;5093690;28;19951;-67
2022/11/07 05:19:41;;;;;;;;;;;10.70;99.90;;;;;;5093917;28;19914;-66
2022/11/07 05:24:53;;;;;;;;;;;10.60;99.90;;;;;;5093409;28;19908;-66
2022/11/07 05:27:19;;;;;;;;;;;10.70;99.90;;;;;;5093871;28;19934;-66
2022/11/07 05:29:45;;;;;;;;;;;10.60;99.90;;;;;;5058666;28;20305;-66
2022/11/07 05:32:11;;;;;;;;;;;10.60;99.90;;;;;;5093526;28;19908;-66
2022/11/07 05:34:36;;;;;;;;;;;10.60;99.90;;;;;;5093490;28;19908;-66
2022/11/07 05:37:02;;;;;;;;;;;10.60;99.90;;;;;;5093569;28;19909;-66
2022/11/07 05:39:27;;;;;;;;;;;10.60;99.90;;;;;;5093520;28;19947;-66
2022/11/07 05:41:53;;;;;;;;;;;10.60;99.90;;;;;;5093490;28;19999;-66
2022/11/07 05:44:18;;;;;;;;;;;10.60;99.90;;;;;;5093417;28;19908;-66
2022/11/07 05:46:43;;;;;;;;;;;10.60;99.90;;;;;;5093388;28;19908;-66
2022/11/07 05:49:09;;;;;;;;;;;10.70;99.90;;;;;;5093614;28;19908;-66
2022/11/07 05:51:34;;;;;;;;;;;10.70;99.90;;;;;;5093374;28;19931;-66
2022/11/07 05:54:00;;;;;;;;;;;10.70;99.90;;;;;;5093328;28;19908;-66
2022/11/07 05:56:25;;;;;;;;;;;10.80;99.90;;;;;;5093557;28;19954;-66
2022/11/07 05:58:51;;;;;;;;;;;10.70;99.90;;;;;;5093328;28;19909;-66
2022/11/07 06:01:16;;;;;;;;;;;10.80;99.90;;;;;;5093768;28;19962;-66
2022/11/07 06:03:42;;;;;;;;;;;10.70;99.90;;;;;;5093174;28;19912;-66
2022/11/07 06:06:07;;;;;;;;;;;10.70;99.90;;;;;;5093192;28;19909;-66
2022/11/07 06:08:33;;;;;;;;;;;10.70;99.90;;;;;;5092975;28;19954;-67
2022/11/07 06:11:02;;;;;;;;;;;10.60;99.90;;;;;;5093354;28;20289;-66
2022/11/07 06:13:27;;;;;;;;;;;10.70;99.90;;;;;;5093402;28;19908;-66
2022/11/07 06:15:53;;;;;;;;;;;10.60;99.90;;;;;;5093121;28;19908;-67
2022/11/07 06:18:19;;;;;;;;;;;10.70;99.90;;;;;;5096110;28;19956;-66
2022/11/07 06:20:45;;;;;;;;;;;10.70;99.90;;;;;;5096785;28;19908;-66
2022/11/07 06:23:10;;;;;;;;;;;10.60;99.90;;;;;;5096691;28;19942;-66
2022/11/07 06:25:36;;;;;;;;;;;10.70;99.90;;;;;;5096933;28;19912;-66
2022/11/07 06:28:03;;;;;;;;;;;10.80;99.90;;;;;;5096648;28;20007;-66
2022/11/07 06:30:29;;;;;;;;;;;10.80;99.90;;;;;;5096549;28;19912;-66
2022/11/07 06:32:55;;;;;;;;;;;10.70;99.90;;;;;;5078336;28;19918;-67
2022/11/07 06:35:21;;;;;;;;;;;10.70;99.90;;;;;;5096503;28;19912;-66
2022/11/07 06:37:46;;;;;;;;;;;10.80;99.90;;;;;;5096690;28;19919;-66
2022/11/07 06:40:12;;;;;;;;;;;10.80;99.90;;;;;;5096377;28;19908;-66
2022/11/07 06:42:37;;;;;;;;;;;10.80;99.90;;;;;;5096290;28;19930;-66
2022/11/07 06:45:03;;;;;;;;;;;10.80;99.90;;;;;;5096570;28;20376;-66
2022/11/07 06:47:29;;;;;;;;;;;10.80;99.90;;;;;;5096194;28;19912;-66
2022/11/07 06:49:54;;;;;;;;;;;10.80;99.90;;;;;;5096074;28;20015;-67
2022/11/07 06:52:20;;;;;;;;;;;10.90;99.90;;;;;;5087464;28;19909;-66
2022/11/07 06:54:45;;;;;;;;;;;10.90;99.90;;;;;;5077805;28;19939;-68
2022/11/07 06:57:11;;;;;;;;;;;10.90;99.90;;;;;;5082064;28;19912;-67
2022/11/07 06:59:36;;;;;;;;;;;11.00;99.90;;;;;;5066935;28;19919;-67
2022/11/07 07:02:02;;;;;;;;;;;11.00;99.90;;;;;;5065425;28;20008;-66
2022/11/07 07:04:27;;;;;;;;;;;11.00;99.90;;;;;;5086657;28;19912;-66
2022/11/07 07:06:53;;;;;;;;;;;11.00;99.90;;;;;;5097677;28;19947;-67
2022/11/07 07:09:18;;;;;;;;;;;11.00;99.90;;;;;;5092487;28;19927;-67
2022/11/07 07:11:44;;;;;;;;;;;11.20;99.90;;;;;;5098663;28;19957;-67
2022/11/07 07:14:10;;;;;;;;;;;11.20;99.90;;;;;;5094441;28;20285;-68
2022/11/07 07:16:36;;;;;;;;;;;11.30;99.90;;;;;;5094296;28;19912;-67
2022/11/07 07:19:01;;;;;;;;;;;11.50;99.90;;;;;;5104290;28;19912;-67
2022/11/07 07:21:27;;;;;;;;;;;11.70;99.90;;;;;;5098789;28;19951;-69
2022/11/07 07:23:52;;;;;;;;;;;12.00;99.90;;;;;;5095015;28;20229;-68
2022/11/07 07:26:18;;;;;;;;;;;12.00;99.90;;;;;;5094045;28;19924;-69
2022/11/07 07:28:43;;;;;;;;;;;11.90;99.90;;;;;;5075768;28;19908;-70
2022/11/07 07:31:17;;;;;;;;;;;12.00;99.90;;;;;;5093121;28;20531;-69
2022/11/07 07:33:43;;;;;;;;;;;12.00;99.90;;;;;;5103330;28;19920;-73
2022/11/07 07:36:09;;;;;;;;;;;11.90;99.90;;;;;;5092544;28;19916;-69
2022/11/07 07:38:35;;;;;;;;;;;11.90;99.90;;;;;;5084769;28;19912;-71
2022/11/07 07:41:00;;;;;;;;;;;12.00;99.90;;;;;;5059868;28;19908;-68
2022/11/07 07:43:26;;;;;;;;;;;12.10;99.90;;;;;;5104247;28;19960;-70
2022/11/07 07:45:52;;;;;;;;;;;12.10;99.90;;;;;;5078530;28;19920;-71
2022/11/07 07:48:17;;;;;;;;;;;12.10;99.90;;;;;;5081720;28;20029;-67
2022/11/07 07:50:45;;;;;;;;;;;12.20;99.90;;;;;;5096619;28;19950;-69
2022/11/07 07:53:11;;;;;;;;;;;12.20;99.90;;;;;;5088397;28;20012;-67
2022/11/07 07:55:36;;;;;;;;;;;12.30;99.90;;;;;;5100715;28;20369;-68
2022/11/07 07:58:02;;;;;;;;;;;12.30;99.90;;;;;;5093621;28;19912;-66
2022/11/07 08:00:27;;;;;;;;;;;12.30;99.90;;;;;;5096050;28;19958;-69
2022/11/07 08:03:09;;;;;;;;;;;12.40;99.90;;;;;;5059303;28;19920;-67
2022/11/07 08:05:36;;;;;;;;;;;12.40;99.90;;;;;;5086675;28;20287;-69
2022/11/07 08:08:02;;;;;;;;;;;12.50;99.90;;;;;;5094517;28;19935;-71
2022/11/07 08:10:28;;;;;;;;;;;12.50;99.90;;;;;;5091286;28;20498;-70
2022/11/07 08:12:54;;;;;;;;;;;12.60;99.90;;;;;;5093554;28;19912;-68
2022/11/07 08:15:20;;;;;;;;;;;12.60;99.90;;;;;;5090021;28;19912;-69
2022/11/07 08:17:45;;;;;;;;;;;12.60;99.90;;;;;;5055803;28;19942;-69
2022/11/07 08:20:12;;;;;;;;;;;12.70;99.90;;;;;;5087695;28;19913;-69
2022/11/07 08:22:38;;;;;;;;;;;12.70;99.90;;;;;;5091485;28;20403;-68
2022/11/07 08:25:04;;;;;;;;;;;12.70;99.90;;;;;;5091103;28;19947;-68
2022/11/07 08:27:30;;;;;;;;;;;12.80;99.90;;;;;;5093366;28;19942;-68
2022/11/07 08:29:56;;;;;;;;;;;12.90;99.90;;;;;;5094966;28;19916;-68
2022/11/07 08:32:22;;;;;;;;;;;12.90;99.90;;;;;;5087212;28;20397;-73
2022/11/07 08:34:47;;;;;;;;;;;12.90;99.90;;;;;;5093264;28;19926;-73
2022/11/07 08:37:13;;;;;;;;;;;13.00;99.90;;;;;;5073793;28;19912;-71
2022/11/07 08:39:39;;;;;;;;;;;13.00;99.90;;;;;;5086781;28;19912;-69
2022/11/07 08:42:04;;;;;;;;;;;13.10;99.90;;;;;;5092254;28;20275;-70
2022/11/07 08:44:33;;;;;;;;;;;13.20;99.90;;;;;;5096912;28;20006;-70
2022/11/07 08:46:59;;;;;;;;;;;13.30;99.90;;;;;;5095463;28;19912;-68
2022/11/07 08:49:24;;;;;;;;;;;13.30;99.90;;;;;;5087671;28;19923;-69
2022/11/07 08:51:50;;;;;;;;;;;13.40;99.90;;;;;;5093358;28;20327;-68
2022/11/07 08:54:15;;;;;;;;;;;13.40;99.90;;;;;;5092988;28;19923;-70
2022/11/07 08:56:41;;;;;;;;;;;13.50;99.90;;;;;;5091403;28;19916;-70
2022/11/07 08:59:08;;;;;;;;;;;13.40;99.90;;;;;;5082938;28;19919;-70
2022/11/07 09:01:34;;;;;;;;;;;13.50;99.90;;;;;;5086204;28;20312;-69
2022/11/07 09:03:59;;;;;;;;;;;13.40;99.90;;;;;;5083972;28;19913;-72
2022/11/07 09:06:25;;;;;;;;;;;13.40;99.90;;;;;;5092111;28;19919;-72
2022/11/07 09:08:50;;;;;;;;;;;13.40;99.90;;;;;;5085696;28;20377;-70
2022/11/07 09:11:17;;;;;;;;;;;13.50;99.90;;;;;;5089989;28;19920;-70
2022/11/07 09:13:43;;;;;;;;;;;13.50;99.90;;;;;;5090856;28;19976;-72
2022/11/07 09:16:09;;;;;;;;;;;13.70;99.90;;;;;;5076680;28;19912;-73
2022/11/07 09:18:34;;;;;;;;;;;13.70;99.90;;;;;;5093683;28;20384;-72
2022/11/07 09:21:00;;;;;;;;;;;13.70;99.90;;;;;;5094190;28;19951;-70
2022/11/07 09:23:25;;;;;;;;;;;13.70;99.90;;;;;;5090668;28;19912;-73
2022/11/07 09:25:51;;;;;;;;;;;13.80;99.90;;;;;;5095652;28;19920;-69
2022/11/07 09:28:16;;;;;;;;;;;13.80;99.90;;;;;;5095072;28;19958;-70
2022/11/07 09:30:42;;;;;;;;;;;13.80;99.90;;;;;;5099836;28;19926;-72
2022/11/07 09:33:07;;;;;;;;;;;13.90;99.90;;;;;;5073963;28;19927;-71
2022/11/07 09:35:33;;;;;;;;;;;13.90;99.90;;;;;;5082359;28;19919;-69
2022/11/07 09:37:58;;;;;;;;;;;13.90;99.90;;;;;;5089626;28;19912;-71
2022/11/07 09:40:39;;;;;;;;;;;13.80;99.90;;;;;;5094936;28;19912;-71
2022/11/07 09:43:24;;;;;;;;;;;13.80;99.90;;;;;;5090477;28;19950;-69
2022/11/07 09:45:57;;;;;;;;;;;13.90;99.90;;;;;;5097581;28;20295;-70
2022/11/07 09:48:24;;;;;;;;;;;14.10;99.90;;;;;;5098387;28;19919;-72
2022/11/07 09:50:50;;;;;;;;;;;14.20;99.90;;;;;;5100802;28;19916;-69
2022/11/07 09:53:32;;;;;;;;;;;14.20;99.90;;;;;;5099107;28;19923;-70
2022/11/07 09:55:59;;;;;;;;;;;14.10;99.90;;;;;;5089638;28;20028;-69
2022/11/07 09:58:29;;;;;;;;;;;14.10;99.90;;;;;;5092680;28;20388;-67
2022/11/07 10:00:58;;;;;;;;;;;14.00;99.90;;;;;;5102676;28;19911;-68
2022/11/07 10:03:24;;;;;;;;;;;14.00;99.90;;;;;;5102894;28;20403;-68
2022/11/07 10:06:10;;;;;;;;;;;14.00;99.90;;;;;;5099440;28;19943;-68
2022/11/07 10:08:56;;;;;;;;;;;14.00;99.90;;;;;;5109992;28;19912;-67
2022/11/07 10:11:39;;;;;;;;;;;14.00;99.90;;;;;;5093906;28;19924;-67
2022/11/07 10:14:24;;;;;;;;;;;14.00;99.90;;;;;;5097518;28;19912;-68
2022/11/07 10:17:02;;;;;;;;;;;14.00;99.90;;;;;;5085101;28;19959;-68
2022/11/07 10:19:47;;;;;;;;;;;14.10;99.90;;;;;;5086663;28;19919;-69
2022/11/07 10:22:18;;;;;;;;;;;14.10;99.90;;;;;;5083850;28;19970;-67
2022/11/07 10:24:48;;;;;;;;;;;14.10;99.90;;;;;;5095785;28;19908;-69
2022/11/07 10:27:13;;;;;;;;;;;14.20;99.90;;;;;;5095469;28;19965;-69
2022/11/07 10:29:43;;;;;;;;;;;14.20;99.90;;;;;;5077962;28;19926;-69
2022/11/07 10:32:15;;;;;;;;;;;14.20;99.90;;;;;;5096333;28;20345;-68
2022/11/07 10:34:43;;;;;;;;;;;14.30;99.90;;;;;;5091950;28;19919;-68
2022/11/07 10:37:09;;;;;;;;;;;14.40;99.90;;;;;;5095003;28;19916;-68
2022/11/07 10:39:34;;;;;;;;;;;14.70;99.90;;;;;;5080859;28;20346;-69
2022/11/07 10:42:04;;;;;;;;;;;15.00;99.90;;;;;;5088138;28;19913;-69
2022/11/07 10:44:30;;;;;;;;;;;15.20;99.90;;;;;;5086257;28;19952;-69
2022/11/07 10:46:56;;;;;;;;;;;15.20;99.90;;;;;;5091157;28;19951;-68
2022/11/07 10:49:26;;;;;;;;;;;14.90;99.90;;;;;;5091189;28;19954;-68
2022/11/07 10:51:52;;;;;;;;;;;14.70;99.90;;;;;;5103410;28;20394;-70
2022/11/07 10:54:20;;;;;;;;;;;14.70;99.90;;;;;;5077312;28;19935;-69
2022/11/07 10:56:48;;;;;;;;;;;14.60;99.90;;;;;;5096140;28;19912;-68
2022/11/07 10:59:21;;;;;;;;;;;14.50;99.90;;;;;;5095740;28;20118;-67
2022/11/07 11:01:51;;;;;;;;;;;14.50;99.90;;;;;;5075047;28;19916;-68
2022/11/07 11:04:21;;;;;;;;;;;14.40;99.90;;;;;;5086903;28;19956;-68
2022/11/07 11:06:54;;;;;;;;;;;14.30;99.90;;;;;;5088564;28;19912;-67
2022/11/07 11:09:21;;;;;;;;;;;14.20;99.90;;;;;;5094434;28;19920;-67
2022/11/07 11:11:49;;;;;;;;;;;14.10;99.90;;;;;;5084663;28;20416;-68
2022/11/07 11:14:15;;;;;;;;;;;14.00;99.90;;;;;;5087770;28;20273;-68
2022/11/07 11:16:41;;;;;;;;;;;14.10;99.90;;;;;;5085284;28;20495;-67
2022/11/07 11:19:24;;;;;;;;;;;14.00;99.90;;;;;;5093185;28;19912;-67
2022/11/07 11:21:50;;;;;;;;;;;14.00;99.90;;;;;;5079901;28;19920;-68
2022/11/07 11:24:21;;;;;;;;;;;13.80;99.90;;;;;;5094414;28;19963;-68
2022/11/07 11:26:49;;;;;;;;;;;13.70;99.90;;;;;;5080600;28;20326;-69
2022/11/07 11:29:21;;;;;;;;;;;13.60;99.90;;;;;;5092643;28;20293;-66
2022/11/07 11:31:49;;;;;;;;;;;13.60;99.90;;;;;;5084597;28;20361;-64
2022/11/07 11:34:18;;;;;;;;;;;13.60;99.90;;;;;;5069174;28;20373;-66
2022/11/07 11:36:54;;;;;;;;;;;13.70;99.90;;;;;;5098465;28;20396;-66
2022/11/07 11:39:25;;;;;;;;;;;13.60;99.90;;;;;;5083905;28;20434;-65
2022/11/07 11:41:53;;;;;;;;;;;13.50;99.90;;;;;;5092394;28;19920;-67
2022/11/07 11:44:25;;;;;;;;;;;13.40;99.90;;;;;;5088605;28;20050;-67
2022/11/07 11:46:56;;;;;;;;;;;13.50;99.90;;;;;;5086327;28;19973;-68
2022/11/07 11:49:26;;;;;;;;;;;13.40;99.90;;;;;;5075471;28;20369;-68
2022/11/07 11:51:54;;;;;;;;;;;13.50;99.90;;;;;;5084659;28;20038;-64
2022/11/07 11:54:20;;;;;;;;;;;13.40;99.90;;;;;;5088326;28;20309;-67
2022/11/07 11:56:51;;;;;;;;;;;13.40;99.90;;;;;;5094320;28;19916;-68
2022/11/07 11:59:24;;;;;;;;;;;13.40;99.90;;;;;;5096971;28;20405;-68
2022/11/07 12:02:10;;;;;;;;;;;13.50;99.90;;;;;;5072488;28;19915;-70
2022/11/07 12:04:46;;;;;;;;;;;13.50;99.90;;;;;;5093253;28;19977;-69
2022/11/07 12:07:31;;;;;;;;;;;13.60;99.90;;;;;;5095840;28;20198;-67
2022/11/07 12:10:03;;;;;;;;;;;13.60;99.90;;;;;;5095139;28;19927;-69
2022/11/07 12:12:37;;;;;;;;;;;13.60;99.90;;;;;;5106552;28;20408;-69
2022/11/07 12:15:23;;;;;;;;;;;13.70;99.90;;;;;;5093016;28;19960;-69
2022/11/07 12:17:56;;;;;;;;;;;13.70;99.90;;;;;;5093013;28;20282;-69
2022/11/07 12:20:27;;;;;;;;;;;13.70;99.90;;;;;;5081392;28;20080;-69
2022/11/07 12:22:55;;;;;;;;;;;13.80;99.90;;;;;;5068307;28;19912;-69
2022/11/07 12:25:41;;;;;;;;;;;13.80;99.90;;;;;;5084888;28;19916;-70
2022/11/07 12:28:18;;;;;;;;;;;13.90;99.90;;;;;;5093411;28;19943;-69
2022/11/07 12:30:53;;;;;;;;;;;13.90;99.90;;;;;;5084105;28;19916;-68
2022/11/07 12:33:26;;;;;;;;;;;13.90;99.90;;;;;;5087086;28;19955;-67
2022/11/07 12:35:53;;;;;;;;;;;14.00;99.90;;;;;;5095335;28;20376;-69
2022/11/07 12:38:39;;;;;;;;;;;14.00;99.90;;;;;;5089465;28;19923;-71
2022/11/07 12:41:24;;;;;;;;;;;14.00;99.90;;;;;;5091028;28;20281;-70
2022/11/07 12:46:41;;;;;;;;;;;14.10;99.90;;;;;;5071155;27;19923;-67
2022/11/07 12:49:12;;;;;;;;;;;14.20;99.90;;;;;;5056126;28;20034;-66
2022/11/07 12:51:44;;;;;;;;;;;14.40;99.90;;;;;;5048805;28;19952;-68
2022/11/07 12:54:21;;;;;;;;;;;14.40;99.90;;;;;;5067784;28;19920;-69
2022/11/07 12:56:47;;;;;;;;;;;14.50;99.90;;;;;;5061848;28;19913;-67
2022/11/07 12:59:17;;;;;;;;;;;14.70;99.90;;;;;;5053552;28;19913;-68
2022/11/07 13:01:48;;;;;;;;;;;14.70;99.90;;;;;;5058574;28;19913;-68
2022/11/07 13:04:33;;;;;;;;;;;14.70;99.90;;;;;;5062432;28;19975;-67
2022/11/07 13:07:08;;;;;;;;;;;14.80;99.90;;;;;;5050594;28;19909;-68
2022/11/07 13:09:38;;;;;;;;;;;15.00;99.90;;;;;;5053666;28;19913;-67
2022/11/07 13:12:23;;;;;;;;;;;15.10;99.90;;;;;;5064894;28;19913;-69
2022/11/07 13:14:50;;;;;;;;;;;15.00;99.90;;;;;;5045188;28;19921;-69
2022/11/07 13:17:18;;;;;;;;;;;15.10;99.90;;;;;;5075910;28;20318;-67
2022/11/07 13:19:45;;;;;;;;;;;15.20;99.90;;;;;;5060936;28;19966;-67
2022/11/07 13:22:19;;;;;;;;;;;15.20;99.90;;;;;;5055707;28;19913;-68
2022/11/07 13:24:53;;;;;;;;;;;15.20;99.90;;;;;;5064340;28;19925;-68
2022/11/07 13:27:21;;;;;;;;;;;15.20;99.90;;;;;;5054687;28;20920;-68
2022/11/07 13:29:46;;;;;;;;;;;15.20;99.90;;;;;;5060119;28;19924;-67
2022/11/07 13:32:13;;;;;;;;;;;15.10;99.90;;;;;;5054584;28;19917;-68
2022/11/07 13:34:42;;;;;;;;;;;15.00;99.90;;;;;;5071115;28;19917;-68
2022/11/07 13:37:11;;;;;;;;;;;14.90;99.90;;;;;;5062797;28;20024;-70
2022/11/07 13:39:37;;;;;;;;;;;14.90;99.90;;;;;;5061093;28;19920;-67
2022/11/07 13:42:03;;;;;;;;;;;14.90;99.90;;;;;;5062625;28;19913;-67
2022/11/07 13:44:31;;;;;;;;;;;14.80;99.90;;;;;;5053146;28;20286;-68
2022/11/07 13:47:00;;;;;;;;;;;14.80;99.90;;;;;;5092606;28;19912;-67
2022/11/07 13:49:29;;;;;;;;;;;14.80;99.90;;;;;;5077413;28;20443;-68
2022/11/07 13:51:57;;;;;;;;;;;14.70;99.90;;;;;;5067438;28;20266;-67
2022/11/07 13:54:28;;;;;;;;;;;14.70;99.90;;;;;;5052731;28;19971;-66
2022/11/07 13:57:13;;;;;;;;;;;14.70;99.90;;;;;;5052846;28;19912;-65
2022/11/07 13:59:44;;;;;;;;;;;14.70;99.90;;;;;;5054136;28;20397;-67
2022/11/07 14:02:17;;;;;;;;;;;14.70;99.90;;;;;;5053989;28;19936;-65
2022/11/07 14:04:47;;;;;;;;;;;14.70;99.90;;;;;;5059101;28;20396;-66
2022/11/07 14:07:12;;;;;;;;;;;14.70;99.90;;;;;;5056015;28;19928;-66
2022/11/07 14:09:38;;;;;;;;;;;14.70;99.90;;;;;;5057234;28;20367;-67
2022/11/07 14:12:04;;;;;;;;;;;14.70;99.90;;;;;;5057284;28;20277;-64
2022/11/07 14:14:29;;;;;;;;;;;14.70;99.90;;;;;;5057497;28;20454;-65
2022/11/07 14:16:56;;;;;;;;;;;14.70;99.90;;;;;;5077099;28;19912;-64
2022/11/07 14:19:25;;;;;;;;;;;14.70;99.90;;;;;;5073810;28;20374;-67
2022/11/07 14:21:51;;;;;;;;;;;14.70;99.90;;;;;;5054041;28;19920;-66
2022/11/07 14:24:21;;;;;;;;;;;14.70;99.90;;;;;;5055873;28;19917;-67
2022/11/07 14:27:07;;;;;;;;;;;14.70;99.90;;;;;;5057315;28;19959;-66
2022/11/07 14:29:33;;;;;;;;;;;14.70;99.90;;;;;;5051494;28;19913;-67
2022/11/07 14:32:00;;;;;;;;;;;14.70;99.90;;;;;;5047432;28;20386;-66
2022/11/07 14:34:25;;;;;;;;;;;14.70;99.90;;;;;;5065667;28;19912;-67